Time;durP1;ratioP1;P1;durP2;ratioP2;P2;SDS_P1;SDS_P2;PMS_P1;PMS_P2;Temp;Humidity;BMP_temperature;BMP_pressure;BME280_temperature;BME280_humidity;BME280_pressure;Samples;Min_cycle;Max_cycle;Signal;HPM_P1;HPM_P2
2022/02/04 00:22:44;;;;;;;25.40;18.00;;;7.00;99.90;;;;;;5044705;28;20097;-84
2022/02/04 00:25:22;;;;;;;22.80;16.70;;;7.00;99.90;;;;;;5041373;28;20574;-84
2022/02/04 00:27:49;;;;;;;25.02;18.25;;;7.00;99.90;;;;;;5074980;28;20123;-82
2022/02/04 00:30:24;;;;;;;24.58;16.98;;;6.90;99.90;;;;;;5031301;28;20033;-80
2022/02/04 00:32:51;;;;;;;24.48;17.77;;;6.90;99.90;;;;;;5020192;28;20030;-81
2022/02/04 00:35:29;;;;;;;25.70;17.75;;;6.90;99.90;;;;;;4993910;28;20032;-81
2022/02/04 00:38:00;;;;;;;25.95;18.58;;;6.80;99.90;;;;;;5027480;28;20051;-81
2022/02/04 00:40:29;;;;;;;23.77;16.27;;;6.80;99.90;;;;;;5044340;28;20036;-81
2022/02/04 00:42:59;;;;;;;24.13;17.02;;;6.70;99.90;;;;;;5044486;28;20047;-81
2022/02/04 00:45:32;;;;;;;22.38;17.35;;;6.80;99.90;;;;;;5043170;28;20116;-81
2022/02/04 00:48:15;;;;;;;26.10;17.00;;;6.70;99.90;;;;;;5028623;28;20043;-81
2022/02/04 00:51:06;;;;;;;24.88;17.08;;;6.60;99.90;;;;;;5030314;28;20092;-81
2022/02/04 00:53:40;;;;;;;23.83;16.73;;;6.50;99.90;;;;;;5047057;28;20075;-81
2022/02/04 00:56:17;;;;;;;24.45;16.63;;;6.60;99.90;;;;;;5029573;28;20088;-82
2022/02/04 01:28:25;;;;;;;18.00;14.00;;;6.70;99.90;;;;;;5044476;28;20041;-82
2022/02/04 01:30:51;;;;;;;20.02;15.00;;;6.60;99.90;;;;;;5045061;28;20510;-81
2022/02/04 01:33:17;;;;;;;17.25;14.13;;;6.50;99.90;;;;;;5044774;28;20029;-83
2022/02/04 01:35:42;;;;;;;18.98;14.85;;;6.50;99.90;;;;;;5015357;28;20071;-83
2022/02/04 01:38:08;;;;;;;19.52;13.77;;;6.40;99.90;;;;;;5029368;28;20033;-81
2022/02/04 01:40:34;;;;;;;18.52;13.98;;;6.50;99.90;;;;;;5028914;28;20075;-82
2022/02/04 01:43:00;;;;;;;18.73;14.10;;;6.60;99.90;;;;;;5028671;28;20032;-82
2022/02/04 01:45:26;;;;;;;16.17;12.98;;;6.50;99.90;;;;;;5025590;28;20514;-82
2022/02/04 01:47:57;;;;;;;15.48;12.15;;;6.40;99.90;;;;;;5026302;28;20041;-82
2022/02/04 01:50:24;;;;;;;15.02;12.55;;;6.50;99.90;;;;;;5021543;28;20052;-82
2022/02/04 01:52:50;;;;;;;17.00;11.80;;;6.40;99.90;;;;;;5042173;28;20116;-82
2022/02/04 01:55:17;;;;;;;14.23;11.90;;;6.40;99.90;;;;;;5041075;28;20068;-83
2022/02/04 01:57:43;;;;;;;15.05;12.55;;;6.50;99.90;;;;;;5026233;28;20037;-82
2022/02/04 02:00:10;;;;;;;15.05;12.23;;;6.40;99.90;;;;;;5026004;28;20041;-81
2022/02/04 02:02:36;;;;;;;13.68;11.05;;;6.50;99.90;;;;;;5057890;28;20044;-82
2022/02/04 02:05:02;;;;;;;16.00;11.63;;;6.50;99.90;;;;;;5022678;28;20040;-82
2022/02/04 02:07:29;;;;;;;15.88;11.13;;;6.40;99.90;;;;;;5010880;28;20032;-82
2022/02/04 02:10:03;;;;;;;15.77;10.75;;;6.50;99.90;;;;;;5026470;28;20033;-81
2022/02/04 02:12:36;;;;;;;14.63;11.43;;;6.60;99.90;;;;;;4999182;28;20040;-81
2022/02/04 02:15:17;;;;;;;16.60;10.68;;;6.60;99.90;;;;;;4993874;28;20413;-81
2022/02/04 02:37:53;;;;;;;11.52;9.23;;;6.50;99.90;;;;;;5044930;28;20032;-83
2022/02/04 02:42:51;;;;;;;11.88;9.38;;;6.50;99.90;;;;;;5059660;28;20400;-82
2022/02/04 02:48:13;;;;;;;11.20;8.77;;;6.60;99.90;;;;;;5059210;28;20127;-82
2022/02/04 02:53:41;;;;;;;10.23;8.13;;;6.50;99.90;;;;;;5040499;28;20125;-81
2022/02/04 02:59:18;;;;;;;11.68;8.88;;;6.40;99.90;;;;;;5029744;28;20037;-81
2022/02/04 03:01:34;;;;;;;10.60;8.27;;;6.50;99.90;;;;;;5042395;28;20055;-81
2022/02/04 03:04:04;;;;;;;11.85;9.10;;;6.50;99.90;;;;;;5049630;28;20041;-82
2022/02/04 03:06:58;;;;;;;10.40;8.55;;;6.50;99.90;;;;;;5042106;28;20555;-82
2022/02/04 03:09:24;;;;;;;11.90;8.82;;;6.60;99.90;;;;;;5025460;28;20041;-82
2022/02/04 03:11:49;;;;;;;10.82;8.27;;;6.60;99.90;;;;;;5041553;28;20043;-82
2022/02/04 03:14:15;;;;;;;10.13;7.75;;;6.50;99.90;;;;;;5024954;28;20639;-81
2022/02/04 03:16:40;;;;;;;12.73;8.75;;;6.50;99.90;;;;;;5023775;28;20040;-82
2022/02/04 03:19:08;;;;;;;11.98;8.75;;;6.50;99.90;;;;;;5023958;28;20037;-82
2022/02/04 03:21:41;;;;;;;14.77;9.38;;;6.40;99.90;;;;;;5005091;28;20048;-82
2022/02/04 03:24:11;;;;;;;10.30;8.38;;;6.40;99.90;;;;;;5041629;28;20037;-81
2022/02/04 03:26:47;;;;;;;10.65;8.70;;;6.40;99.90;;;;;;5040191;28;20504;-81
2022/02/04 03:29:16;;;;;;;10.77;8.73;;;6.50;99.90;;;;;;5010877;28;20060;-82
2022/02/04 03:31:50;;;;;;;11.68;8.55;;;6.50;99.90;;;;;;5022600;28;20053;-82
2022/02/04 03:34:17;;;;;;;10.57;8.57;;;6.40;99.90;;;;;;5022739;28;20080;-82
2022/02/04 03:36:42;;;;;;;12.35;9.23;;;6.40;99.90;;;;;;5023645;28;20029;-82
2022/02/04 03:39:08;;;;;;;10.00;8.65;;;6.40;99.90;;;;;;5022569;28;20128;-83
2022/02/04 03:41:33;;;;;;;10.13;8.35;;;6.40;99.90;;;;;;5006278;28;20539;-82
2022/02/04 03:43:59;;;;;;;9.80;7.63;;;6.40;99.90;;;;;;5024773;28;20037;-82
2022/02/04 03:46:25;;;;;;;10.20;7.80;;;6.40;99.90;;;;;;5042394;28;20032;-81
2022/02/04 03:48:50;;;;;;;9.55;7.78;;;6.40;99.90;;;;;;5026160;28;20040;-81
2022/02/04 03:51:16;;;;;;;10.23;8.45;;;6.40;99.90;;;;;;5025597;28;20068;-80
2022/02/04 03:53:41;;;;;;;9.52;8.18;;;6.40;99.90;;;;;;5021608;28;20033;-81
2022/02/04 03:56:07;;;;;;;12.23;8.50;;;6.40;99.90;;;;;;5018773;28;20115;-80
2022/02/04 03:58:36;;;;;;;10.70;7.93;;;6.30;99.90;;;;;;5026124;28;20062;-81
2022/02/04 04:01:03;;;;;;;10.50;8.68;;;6.30;99.90;;;;;;5041186;28;20044;-80
2022/02/04 04:03:29;;;;;;;12.25;8.48;;;6.20;99.90;;;;;;5022966;28;20116;-81
2022/02/04 04:05:54;;;;;;;11.25;8.75;;;6.30;99.90;;;;;;5043251;28;20082;-81
2022/02/04 04:08:20;;;;;;;10.15;8.07;;;6.30;99.90;;;;;;5043569;28;20045;-82
2022/02/04 04:10:46;;;;;;;10.40;8.15;;;6.30;99.90;;;;;;5009338;28;20033;-81
2022/02/04 04:13:13;;;;;;;11.68;8.85;;;6.30;99.90;;;;;;5061828;28;20029;-82
2022/02/04 04:15:39;;;;;;;12.05;9.52;;;6.30;99.90;;;;;;5047799;28;20404;-82
2022/02/04 04:18:12;;;;;;;10.68;8.07;;;6.20;99.90;;;;;;5030339;28;20055;-82
2022/02/04 04:20:42;;;;;;;10.88;8.45;;;6.20;99.90;;;;;;5062502;28;20036;-81
2022/02/04 04:23:08;;;;;;;11.35;8.35;;;6.10;99.90;;;;;;5037935;28;20127;-81
2022/02/04 04:25:34;;;;;;;10.32;8.23;;;6.10;99.90;;;;;;5064438;28;20044;-81
2022/02/04 04:28:00;;;;;;;11.95;8.27;;;6.10;99.90;;;;;;5038656;28;20051;-82
2022/02/04 04:30:26;;;;;;;11.15;8.05;;;6.00;99.90;;;;;;5044655;28;20048;-82
2022/02/04 04:32:53;;;;;;;10.70;8.50;;;6.00;99.90;;;;;;5062361;28;20528;-83
2022/02/04 04:35:23;;;;;;;12.10;8.93;;;6.10;99.90;;;;;;5028012;28;20035;-81
2022/02/04 05:29:20;;;;;;;16.27;11.93;;;6.00;99.90;;;;;;5046160;28;20021;-83
2022/02/04 05:31:46;;;;;;;14.48;11.73;;;6.00;99.90;;;;;;5043552;28;20028;-82
2022/02/04 05:34:18;;;;;;;15.48;11.63;;;6.00;99.90;;;;;;5044496;28;20496;-81
2022/02/04 05:36:47;;;;;;;18.27;13.15;;;6.10;99.90;;;;;;5044474;28;20466;-81
2022/02/04 05:39:24;;;;;;;15.52;11.85;;;6.10;99.90;;;;;;5028134;28;20064;-81
2022/02/04 05:41:50;;;;;;;18.02;11.98;;;6.10;99.90;;;;;;5042603;28;20043;-82
2022/02/04 05:44:17;;;;;;;18.13;12.60;;;6.10;99.90;;;;;;5024947;28;20083;-82
2022/02/04 05:46:52;;;;;;;16.08;11.70;;;6.10;99.90;;;;;;5021978;28;20179;-81
2022/02/04 05:49:20;;;;;;;15.02;11.48;;;6.10;99.90;;;;;;5039360;28;20167;-82
2022/02/04 05:56:57;;;;;;;15.75;12.05;;;6.10;99.90;;;;;;5060640;28;20039;-82
2022/02/04 06:00:31;;;;;;;16.58;11.85;;;6.10;99.90;;;;;;5031316;28;20013;-81
2022/02/04 06:02:23;;;;;;;15.57;11.68;;;6.10;99.90;;;;;;5069017;28;20033;-81
2022/02/04 06:05:02;;;;;;;15.88;12.13;;;6.10;99.90;;;;;;5059869;28;20041;-81
2022/02/04 06:07:38;;;;;;;14.55;11.45;;;6.10;99.90;;;;;;5028922;28;20037;-81
2022/02/04 06:13:05;;;;;;;16.40;12.18;;;6.10;99.90;;;;;;5042874;28;20037;-83
2022/02/04 06:23:22;;;;;;;18.30;11.98;;;6.10;99.90;;;;;;5058466;28;20036;-83
2022/02/04 06:25:47;;;;;;;16.13;12.38;;;6.10;99.90;;;;;;5047030;28;20451;-81
2022/02/04 06:28:15;;;;;;;16.35;11.95;;;6.10;99.90;;;;;;5042733;28;20487;-83
2022/02/04 06:30:42;;;;;;;16.30;12.50;;;6.10;99.90;;;;;;5043060;28;20072;-82
2022/02/04 06:33:08;;;;;;;14.90;11.32;;;6.10;99.90;;;;;;5044120;28;20033;-81
2022/02/04 06:35:37;;;;;;;17.80;12.80;;;6.20;99.90;;;;;;5041848;28;20052;-82
2022/02/04 06:38:03;;;;;;;19.13;13.30;;;6.20;99.90;;;;;;5028457;28;20044;-82
2022/02/04 06:40:30;;;;;;;15.38;12.10;;;6.20;99.90;;;;;;5027669;28;20043;-83
2022/02/04 06:42:55;;;;;;;16.70;13.13;;;6.30;99.90;;;;;;5026828;28;20036;-84
2022/02/04 06:45:24;;;;;;;16.75;12.40;;;6.20;99.90;;;;;;5043583;28;20124;-84
2022/02/04 06:48:05;;;;;;;18.10;12.45;;;6.20;99.90;;;;;;5060722;28;20044;-82
2022/02/04 06:50:30;;;;;;;17.65;13.25;;;6.30;99.90;;;;;;5010844;28;20036;-82
2022/02/04 06:52:56;;;;;;;15.85;12.00;;;6.30;99.90;;;;;;5006858;28;20041;-83
2022/02/04 06:55:22;;;;;;;17.48;12.18;;;6.40;99.90;;;;;;5024472;28;20115;-82
2022/02/04 06:57:48;;;;;;;16.50;13.07;;;6.40;99.90;;;;;;5025654;28;20040;-81
2022/02/04 07:00:17;;;;;;;16.05;12.63;;;6.30;99.90;;;;;;5042300;28;20036;-82
2022/02/04 07:02:43;;;;;;;16.23;12.65;;;6.30;99.90;;;;;;5025788;28;20040;-82
2022/02/04 07:05:12;;;;;;;16.58;13.60;;;6.30;99.90;;;;;;5026718;28;20032;-82
2022/02/04 07:07:40;;;;;;;16.70;12.30;;;6.30;99.90;;;;;;5026589;28;20032;-81
2022/02/04 07:10:16;;;;;;;17.42;13.00;;;6.30;99.90;;;;;;5023958;28;20432;-83
2022/02/04 07:12:52;;;;;;;17.35;12.60;;;6.30;99.90;;;;;;5040234;28;20047;-82
2022/02/04 07:19:44;;;;;;;16.55;12.15;;;6.40;99.90;;;;;;5043802;28;20448;-82
2022/02/04 07:20:53;;;;;;;18.45;13.52;;;6.40;99.90;;;;;;5046057;28;20040;-81
2022/02/04 07:23:21;;;;;;;18.20;12.82;;;6.30;99.90;;;;;;5041020;28;20047;-81
2022/02/04 07:25:47;;;;;;;16.83;12.25;;;6.40;99.90;;;;;;5080317;28;20033;-82
2022/02/04 07:28:13;;;;;;;20.45;13.68;;;6.30;99.90;;;;;;5017554;28;20395;-82
2022/02/04 07:30:39;;;;;;;16.98;13.15;;;6.30;99.90;;;;;;5038782;28;20451;-82
2022/02/04 07:33:36;;;;;;;18.38;13.30;;;6.30;99.90;;;;;;5043372;28;20032;-80
2022/02/04 07:41:09;;;;;;;15.73;11.95;;;6.30;99.90;;;;;;5043815;28;20048;-82
2022/02/04 07:43:35;;;;;;;18.48;12.82;;;6.30;99.90;;;;;;5025130;28;20051;-81
2022/02/04 07:46:00;;;;;;;17.67;12.80;;;6.30;99.90;;;;;;5043507;28;20033;-81
2022/02/04 07:48:27;;;;;;;17.50;12.52;;;6.40;99.90;;;;;;5041038;28;20029;-83
2022/02/04 07:50:53;;;;;;;18.17;11.82;;;6.30;99.90;;;;;;5027243;28;20037;-83
2022/02/04 07:53:19;;;;;;;17.65;11.98;;;6.30;99.90;;;;;;5041619;28;20029;-82
2022/02/04 07:55:46;;;;;;;15.50;11.80;;;6.30;99.90;;;;;;5025876;28;20033;-81
2022/02/04 07:58:13;;;;;;;15.20;10.95;;;6.30;99.90;;;;;;5033697;28;20067;-80
2022/02/04 08:00:40;;;;;;;14.27;10.85;;;6.40;99.90;;;;;;5042567;28;20405;-82
2022/02/04 08:05:55;;;;;;;16.65;11.65;;;6.40;99.90;;;;;;5074224;28;20021;-82
2022/02/04 08:08:28;;;;;;;18.15;12.15;;;6.50;99.90;;;;;;5056785;28;20318;-82
2022/02/04 08:11:12;;;;;;;15.82;11.55;;;6.50;99.90;;;;;;5041794;28;20044;-84
2022/02/04 08:22:16;;;;;;;13.23;10.15;;;6.60;99.90;;;;;;5031390;28;20068;-81
2022/02/04 08:32:40;;;;;;;14.18;10.10;;;6.70;99.90;;;;;;5059576;28;20029;-81
2022/02/04 08:38:24;;;;;;;11.75;9.35;;;6.80;99.90;;;;;;5035119;28;20029;-82
2022/02/04 08:54:58;;;;;;;10.57;7.50;;;6.90;99.90;;;;;;5077688;28;20028;-83
2022/02/04 09:00:00;;;;;;;11.45;8.27;;;6.90;99.90;;;;;;5073309;28;21054;-83
2022/02/04 09:02:37;;;;;;;11.40;9.00;;;7.00;99.90;;;;;;5035633;28;20113;-82
2022/02/04 09:05:07;;;;;;;9.90;7.32;;;7.00;99.90;;;;;;5009036;28;20029;-84
2022/02/04 09:07:48;;;;;;;9.85;7.72;;;7.10;99.90;;;;;;4991593;28;20397;-83
2022/02/04 09:10:15;;;;;;;12.07;8.98;;;7.10;99.90;;;;;;5032669;28;20044;-83
2022/02/04 09:23:22;;;;;;;10.80;8.13;;;7.20;99.90;;;;;;5073249;28;20093;-82
2022/02/04 09:25:48;;;;;;;9.45;7.53;;;7.20;99.90;;;;;;5048457;28;20454;-83
2022/02/04 09:28:13;;;;;;;10.85;8.38;;;7.20;99.90;;;;;;5053005;28;20044;-80
2022/02/04 09:30:42;;;;;;;10.25;8.25;;;7.30;99.90;;;;;;5022430;28;20108;-81
2022/02/04 09:33:08;;;;;;;10.88;7.65;;;7.10;99.90;;;;;;5025340;28;20108;-82
2022/02/04 09:35:33;;;;;;;10.50;7.93;;;7.20;99.90;;;;;;5043317;28;20100;-82
2022/02/04 09:37:59;;;;;;;10.15;7.68;;;7.20;99.90;;;;;;5008091;28;20030;-83
2022/02/04 09:40:25;;;;;;;10.23;7.53;;;7.20;99.90;;;;;;5025394;28;20049;-82
2022/02/04 09:42:54;;;;;;;8.73;7.43;;;7.20;99.90;;;;;;5007027;28;20072;-82
2022/02/04 09:45:22;;;;;;;8.65;6.90;;;7.30;99.90;;;;;;5029444;28;20037;-81
2022/02/04 09:47:56;;;;;;;9.10;7.30;;;7.20;99.90;;;;;;5063814;28;20029;-83
2022/02/04 09:50:24;;;;;;;8.82;7.10;;;7.30;99.90;;;;;;5063400;28;20033;-82
2022/02/04 10:13:32;;;;;;;7.57;6.78;;;7.70;99.90;;;;;;5038858;28;20044;-84
2022/02/04 10:18:30;;;;;;;7.22;5.82;;;7.90;99.90;;;;;;5029124;28;20549;-83
2022/02/04 10:21:03;;;;;;;7.07;6.07;;;7.90;99.90;;;;;;5032303;28;20033;-83
2022/02/04 10:23:58;;;;;;;6.65;5.95;;;7.70;99.90;;;;;;5033282;28;20401;-85
2022/02/04 10:26:24;;;;;;;6.53;5.30;;;7.80;99.90;;;;;;5039123;28;20507;-84
2022/02/04 10:28:50;;;;;;;9.20;5.40;;;7.70;99.90;;;;;;5024152;28;20025;-85
2022/02/04 10:31:24;;;;;;;5.85;5.05;;;7.70;99.90;;;;;;5025293;28;20546;-82
2022/02/04 10:34:14;;;;;;;5.97;4.43;;;7.90;99.90;;;;;;5039682;28;20035;-86
2022/02/04 10:37:00;;;;;;;5.90;4.65;;;8.00;99.90;;;;;;5036973;28;20040;-83
2022/02/04 10:40:00;;;;;;;;;;;8.10;99.90;;;;;;5039142;28;20037;-83
2022/02/04 10:48:10;;;;;;;6.10;3.70;;;8.10;99.90;;;;;;5053064;28;20029;-84
2022/02/04 10:51:12;;;;;;;6.47;4.30;;;8.10;99.90;;;;;;5028852;28;20369;-86
2022/02/04 11:04:25;;;;;;;4.80;3.50;;;8.10;99.90;;;;;;5060846;28;20039;-83
2022/02/04 11:10:02;;;;;;;5.88;4.40;;;8.00;99.90;;;;;;5062226;28;20093;-84
2022/02/04 11:51:03;;;;;;;3.53;2.83;;;8.20;99.90;;;;;;5049798;28;20025;-82
2022/02/04 11:53:45;;;;;;;3.33;2.92;;;8.30;99.90;;;;;;5072900;28;20067;-84
2022/02/04 11:56:24;;;;;;;3.60;3.08;;;8.40;99.90;;;;;;5066316;28;20048;-82
2022/02/04 11:59:00;;;;;;;2.90;2.58;;;8.40;99.90;;;;;;5048955;28;20033;-81
2022/02/04 12:01:45;;;;;;;3.92;2.83;;;8.40;99.90;;;;;;5026188;28;20040;-84
2022/02/04 12:04:20;;;;;;;4.07;3.00;;;8.40;99.90;;;;;;5043083;28;20017;-84
2022/02/04 12:06:46;;;;;;;4.32;2.92;;;8.40;99.90;;;;;;5039912;28;20048;-82
2022/02/04 12:09:13;;;;;;;2.92;2.42;;;8.40;99.90;;;;;;5009046;28;20408;-82
2022/02/04 12:11:40;;;;;;;2.90;2.50;;;8.40;99.90;;;;;;5042264;28;20157;-82
2022/02/04 12:14:11;;;;;;;3.40;2.53;;;8.40;99.90;;;;;;5059123;28;20033;-83
2022/02/04 12:17:01;;;;;;;2.85;2.40;;;8.40;99.90;;;;;;5025848;28;20030;-84
2022/02/04 12:19:37;;;;;;;2.88;2.40;;;8.40;99.90;;;;;;5022014;28;20026;-84
2022/02/04 12:22:03;;;;;;;3.45;2.67;;;8.50;99.90;;;;;;5041569;28;20036;-83
2022/02/04 12:24:34;;;;;;;2.90;2.30;;;8.60;99.90;;;;;;5036332;28;20037;-84
2022/02/04 12:27:29;;;;;;;3.10;2.10;;;8.60;99.90;;;;;;5023113;28;20044;-85
2022/02/04 12:29:56;;;;;;;2.45;2.25;;;8.60;99.90;;;;;;5024416;28;20033;-82
2022/02/04 12:32:21;;;;;;;3.38;2.47;;;8.50;99.90;;;;;;5022560;28;20118;-82
2022/02/04 12:34:48;;;;;;;3.35;2.40;;;8.60;99.90;;;;;;5043661;28;20025;-83
2022/02/04 12:37:16;;;;;;;3.33;2.20;;;8.70;99.90;;;;;;5044644;28;20543;-83
2022/02/04 12:39:42;;;;;;;2.22;2.03;;;8.70;99.90;;;;;;5043254;28;20029;-82
2022/02/04 12:42:10;;;;;;;3.38;2.30;;;8.80;99.90;;;;;;5045405;28;20068;-83
2022/02/04 12:45:05;;;;;;;3.17;2.33;;;8.80;99.90;;;;;;5044717;28;20369;-84
2022/02/04 12:47:31;;;;;;;;;;;8.80;99.90;;;;;;5060984;28;20029;-81
2022/02/04 12:49:58;;;;;;;2.70;2.20;;;8.80;99.90;;;;;;5043949;28;19916;-81
2022/02/04 12:55:13;;;;;;;5.13;2.42;;;8.80;99.90;;;;;;5043637;28;20746;-85
2022/02/04 12:57:54;;;;;;;3.47;2.05;;;8.90;99.90;;;;;;5044052;28;20029;-82
2022/02/04 13:03:12;;;;;;;3.47;2.00;;;9.10;99.90;;;;;;5063072;28;20084;-83
2022/02/04 13:11:26;;;;;;;2.70;1.98;;;9.20;99.90;;;;;;5007687;28;20053;-83
2022/02/04 13:13:59;;;;;;;3.35;2.30;;;9.10;99.90;;;;;;5031771;28;20166;-83
2022/02/04 13:16:27;;;;;;;1.98;1.77;;;9.10;99.90;;;;;;5059425;28;20032;-83
2022/02/04 13:18:54;;;;;;;1.90;1.80;;;9.10;99.90;;;;;;5048500;28;20064;-83
2022/02/04 13:21:20;;;;;;;2.20;2.00;;;9.10;99.90;;;;;;5026517;28;20032;-81
2022/02/04 13:23:51;;;;;;;2.40;2.10;;;8.90;99.90;;;;;;5061928;28;20080;-80
2022/02/04 13:26:22;;;;;;;3.08;2.50;;;8.90;99.90;;;;;;5024747;28;20040;-82
2022/02/04 13:28:48;;;;;;;2.30;2.10;;;8.90;99.90;;;;;;5024413;28;20089;-83
2022/02/04 13:31:22;;;;;;;2.25;2.05;;;9.00;99.90;;;;;;5061505;28;20075;-85
2022/02/04 13:33:50;;;;;;;3.42;2.70;;;9.00;99.90;;;;;;5048338;28;20079;-85
2022/02/04 13:36:38;;;;;;;2.55;2.10;;;9.10;99.90;;;;;;5047478;28;20025;-85
2022/02/04 13:42:05;;;;;;;2.45;2.08;;;9.10;99.90;;;;;;5043127;28;20040;-83
2022/02/04 13:47:33;;;;;;;2.55;2.30;;;9.10;99.90;;;;;;5063699;28;20055;-85
2022/02/04 13:50:24;;;;;;;2.88;2.55;;;8.90;99.90;;;;;;5047374;28;20112;-83
2022/02/04 13:53:10;;;;;;;2.30;2.10;;;8.80;99.90;;;;;;5061715;28;20021;-82
2022/02/04 13:55:52;;;;;;;3.03;2.40;;;8.80;99.90;;;;;;5044153;28;20098;-85
2022/02/04 13:58:54;;;;;;;4.60;2.35;;;8.70;99.90;;;;;;5029055;28;20085;-84
2022/02/04 14:01:33;;;;;;;3.10;2.40;;;8.90;99.90;;;;;;5044531;28;20032;-84
2022/02/04 14:04:02;;;;;;;2.75;2.30;;;9.00;99.90;;;;;;5060414;28;20101;-85
2022/02/04 14:06:30;;;;;;;2.78;2.30;;;9.10;99.90;;;;;;5042505;28;20033;-84
2022/02/04 14:09:00;;;;;;;2.67;2.25;;;9.10;99.90;;;;;;5043893;28;20037;-86
2022/02/04 14:11:38;;;;;;;2.60;2.30;;;9.10;99.90;;;;;;5041873;28;20024;-83
2022/02/04 14:14:21;;;;;;;8.82;2.38;;;9.20;99.90;;;;;;5043054;28;20071;-85
2022/02/04 14:16:54;;;;;;;3.40;2.47;;;9.30;99.90;;;;;;5043061;28;20040;-85
2022/02/04 14:19:25;;;;;;;3.25;2.20;;;9.40;99.90;;;;;;5047558;28;20425;-84
2022/02/04 14:21:50;;;;;;;3.92;2.10;;;9.40;99.90;;;;;;5055397;28;20071;-85
2022/02/04 14:24:18;;;;;;;2.42;2.10;;;9.40;99.90;;;;;;5055293;28;20033;-83
2022/02/04 14:26:47;;;;;;;2.60;2.20;;;9.40;99.90;;;;;;5064106;28;20041;-84
2022/02/04 14:29:22;;;;;;;2.97;2.45;;;9.10;99.90;;;;;;5019407;28;20048;-84
2022/02/04 14:31:56;;;;;;;2.50;2.30;;;8.90;99.90;;;;;;5049374;28;20029;-85
2022/02/04 15:03:29;;;;;;;3.13;2.60;;;8.40;99.90;;;;;;5015977;28;20029;-87
2022/02/04 15:08:36;;;;;;;3.15;2.20;;;8.40;99.90;;;;;;5059673;28;20051;-87
2022/02/04 15:11:11;;;;;;;3.72;2.22;;;8.40;99.90;;;;;;5044217;28;20397;-86
2022/02/04 15:13:44;;;;;;;2.60;2.17;;;8.30;99.90;;;;;;5045366;28;20374;-85
2022/02/04 15:16:10;;;;;;;2.55;2.17;;;8.30;99.90;;;;;;5029493;28;20041;-87
2022/02/04 15:18:38;;;;;;;3.00;2.38;;;8.30;99.90;;;;;;5048041;28;20488;-87
2022/02/04 15:21:10;;;;;;;2.88;2.30;;;8.30;99.90;;;;;;5050465;28;20082;-86
2022/02/04 15:23:49;;;;;;;3.42;2.20;;;8.30;99.90;;;;;;5057194;28;20481;-83
2022/02/04 15:26:19;;;;;;;3.78;2.38;;;8.30;99.90;;;;;;5063533;28;20045;-83
2022/02/04 15:28:54;;;;;;;4.80;2.28;;;8.30;99.90;;;;;;5048161;28;20107;-85
2022/02/04 15:33:53;;;;;;;2.75;2.30;;;8.30;99.90;;;;;;5042206;28;20053;-85
2022/02/04 15:36:31;;;;;;;2.30;2.10;;;8.30;99.90;;;;;;5042919;28;20025;-87
2022/02/04 15:38:59;;;;;;;2.60;2.35;;;8.20;99.90;;;;;;5047543;28;20033;-83
2022/02/04 15:41:28;;;;;;;3.00;2.20;;;8.20;99.90;;;;;;5047451;28;20111;-81
2022/02/04 15:43:58;;;;;;;3.40;2.00;;;8.20;99.90;;;;;;5047639;28;20043;-82
2022/02/04 15:46:45;;;;;;;2.95;2.60;;;8.20;99.90;;;;;;5030953;28;20484;-84
2022/02/04 15:52:13;;;;;;;2.63;2.17;;;8.30;99.90;;;;;;5060321;28;20025;-81
2022/02/04 15:55:08;;;;;;;3.60;2.08;;;8.30;99.90;;;;;;5064184;28;20032;-81
2022/02/04 16:00:58;;;;;;;1.90;1.80;;;8.20;99.90;;;;;;5047897;28;20010;-87
2022/02/04 16:03:39;;;;;;;2.15;1.95;;;8.20;99.90;;;;;;5043264;28;20065;-82
2022/02/04 16:06:06;;;;;;;2.67;2.30;;;8.30;99.90;;;;;;5043403;28;20026;-85
2022/02/04 16:08:32;;;;;;;2.47;1.90;;;8.50;99.90;;;;;;5060595;28;20025;-81
2022/02/04 16:11:08;;;;;;;5.50;2.17;;;8.70;99.90;;;;;;5041663;28;20044;-83
2022/02/04 16:13:42;;;;;;;1.92;1.73;;;8.70;99.90;;;;;;5043835;28;20530;-83
2022/02/04 16:26:55;;;;;;;2.35;2.00;;;8.10;99.90;;;;;;5042078;28;20060;-81
2022/02/04 16:29:21;;;;;;;1.92;1.75;;;8.10;99.90;;;;;;5026854;28;20029;-84
2022/02/04 16:31:47;;;;;;;2.75;1.90;;;8.00;99.90;;;;;;5024930;28;20071;-84
2022/02/04 16:34:14;;;;;;;2.25;1.90;;;7.90;99.90;;;;;;5042570;28;20029;-84
2022/02/04 16:36:45;;;;;;;2.13;1.80;;;7.80;99.90;;;;;;5008019;28;20044;-82
2022/02/04 16:39:12;;;;;;;2.63;2.22;;;7.80;99.90;;;;;;5030503;28;20074;-84
2022/02/04 16:41:50;;;;;;;3.13;2.42;;;7.80;99.90;;;;;;5039716;28;20033;-83
2022/02/04 16:44:17;;;;;;;2.40;2.20;;;7.70;99.90;;;;;;5038727;28;20035;-83
2022/02/04 16:46:44;;;;;;;3.53;2.92;;;7.80;99.90;;;;;;5051385;28;20056;-81
2022/02/04 16:49:10;;;;;;;2.38;2.17;;;7.80;99.90;;;;;;5051751;28;20040;-81
2022/02/04 16:51:37;;;;;;;2.70;2.40;;;7.80;99.90;;;;;;5046497;28;20033;-84
2022/02/04 16:54:03;;;;;;;3.03;2.13;;;7.90;99.90;;;;;;5046311;28;20036;-83
2022/02/04 16:56:32;;;;;;;2.90;2.40;;;7.90;99.90;;;;;;5043387;28;20404;-83
2022/02/04 16:59:00;;;;;;;4.43;2.13;;;7.80;99.90;;;;;;5028307;28;20033;-84
2022/02/04 17:01:26;;;;;;;2.90;2.33;;;7.80;99.90;;;;;;5010983;28;20033;-83
2022/02/04 17:03:52;;;;;;;2.70;2.20;;;7.80;99.90;;;;;;5026470;28;20037;-84
2022/02/04 17:06:21;;;;;;;3.10;2.15;;;7.80;99.90;;;;;;5022939;28;20095;-85
2022/02/04 17:08:52;;;;;;;2.15;1.83;;;7.80;99.90;;;;;;5022701;28;20033;-82
2022/02/04 17:11:23;;;;;;;3.72;2.40;;;7.80;99.90;;;;;;5024239;28;20120;-82
2022/02/04 17:13:49;;;;;;;2.25;2.00;;;7.80;99.90;;;;;;5006690;28;20087;-82
2022/02/04 17:16:16;;;;;;;2.53;2.20;;;7.70;99.90;;;;;;4992866;28;20430;-81
2022/02/04 17:18:42;;;;;;;3.00;2.00;;;7.70;99.90;;;;;;5026548;28;20021;-82
2022/02/04 17:21:08;;;;;;;2.67;2.20;;;7.70;99.90;;;;;;5046734;28;20033;-79
2022/02/04 17:23:45;;;;;;;3.45;2.15;;;7.80;99.90;;;;;;5042923;28;20090;-84
2022/02/04 17:26:11;;;;;;;3.70;2.53;;;7.70;99.90;;;;;;5038412;28;20096;-83
2022/02/04 17:28:37;;;;;;;2.65;2.20;;;7.70;99.90;;;;;;5034732;28;20057;-83
2022/02/04 17:31:07;;;;;;;3.63;2.70;;;7.70;99.90;;;;;;5044227;28;20048;-83
2022/02/04 17:33:36;;;;;;;2.85;2.28;;;7.70;99.90;;;;;;5032911;28;20037;-83
2022/02/04 17:36:01;;;;;;;3.40;2.20;;;7.70;99.90;;;;;;5045261;28;20025;-84
2022/02/04 17:38:29;;;;;;;2.72;2.17;;;7.80;99.90;;;;;;5046566;28;20093;-83
2022/02/04 17:40:58;;;;;;;3.00;2.30;;;7.70;99.90;;;;;;5027647;28;20107;-82
2022/02/04 17:43:25;;;;;;;2.25;2.03;;;7.70;99.90;;;;;;5048362;28;20534;-83
2022/02/04 17:45:53;;;;;;;3.28;2.25;;;7.70;99.90;;;;;;5031247;28;20028;-86
2022/02/04 17:48:26;;;;;;;2.78;1.73;;;7.70;99.90;;;;;;5026397;28;20081;-84
2022/02/04 17:51:28;;;;;;;2.40;2.20;;;7.70;99.90;;;;;;5032182;28;20115;-83
2022/02/04 17:54:09;;;;;;;2.53;2.28;;;7.70;99.90;;;;;;5043992;28;20064;-83
2022/02/04 17:56:51;;;;;;;1.90;1.80;;;7.70;99.90;;;;;;5046107;28;20033;-80
2022/02/04 18:07:45;;;;;;;2.42;2.10;;;7.80;99.90;;;;;;5048983;28;20021;-83
2022/02/04 18:10:11;;;;;;;2.83;2.00;;;7.70;99.90;;;;;;5018149;28;20037;-81
2022/02/04 18:12:40;;;;;;;2.00;1.77;;;7.80;99.90;;;;;;5020462;28;20036;-82
2022/02/04 18:15:08;;;;;;;2.20;2.00;;;7.70;99.90;;;;;;5028149;28;20029;-83
2022/02/04 18:17:34;;;;;;;2.85;1.90;;;7.70;99.90;;;;;;5043967;28;20507;-83
2022/02/04 18:20:03;;;;;;;2.72;2.00;;;7.70;99.90;;;;;;5025363;28;20029;-84
2022/02/04 18:22:35;;;;;;;3.10;2.33;;;7.80;99.90;;;;;;5050613;28;20036;-84
2022/02/04 18:25:22;;;;;;;2.70;2.25;;;7.70;99.90;;;;;;5063306;28;20059;-84
2022/02/04 18:27:55;;;;;;;2.38;2.00;;;7.70;99.90;;;;;;5032745;28;20037;-81
2022/02/04 18:30:23;;;;;;;2.67;2.10;;;7.70;99.90;;;;;;5042756;28;20038;-81
2022/02/04 18:32:48;;;;;;;4.28;2.20;;;7.80;99.90;;;;;;5040815;28;20091;-80
2022/02/04 18:35:16;;;;;;;3.75;2.65;;;7.80;99.90;;;;;;5008346;28;20033;-81
2022/02/04 18:37:44;;;;;;;2.50;2.30;;;7.80;99.90;;;;;;5058611;28;20025;-80
2022/02/04 18:45:24;;;;;;;2.72;2.40;;;7.80;99.90;;;;;;5041916;28;20037;-80
2022/02/04 18:55:47;;;;;;;2.92;2.15;;;7.70;99.90;;;;;;5064971;28;20020;-81
2022/02/04 18:58:19;;;;;;;2.70;2.17;;;7.70;99.90;;;;;;5060899;28;20047;-80
2022/02/04 19:00:46;;;;;;;2.38;2.10;;;7.70;99.90;;;;;;5042249;28;20040;-80
2022/02/04 19:03:18;;;;;;;1.98;1.88;;;7.70;99.90;;;;;;5030805;28;20060;-82
2022/02/04 19:06:00;;;;;;;2.10;1.90;;;7.70;99.90;;;;;;5045192;28;20025;-80
2022/02/04 19:08:32;;;;;;;2.33;2.10;;;7.70;99.90;;;;;;5043573;28;20064;-80
2022/02/04 19:11:01;;;;;;;3.60;2.50;;;7.70;99.90;;;;;;5023215;28;20124;-80
2022/02/04 19:13:37;;;;;;;3.88;2.20;;;7.60;99.90;;;;;;5023603;28;20057;-81
2022/02/04 19:16:27;;;;;;;2.30;2.10;;;7.70;99.90;;;;;;5027358;28;20037;-79
2022/02/04 19:21:40;;;;;;;2.38;1.98;;;7.60;99.90;;;;;;5043197;28;20048;-80
2022/02/04 19:24:07;;;;;;;2.35;2.15;;;7.70;99.90;;;;;;5058184;28;20025;-80
2022/02/04 19:26:33;;;;;;;4.22;2.05;;;7.60;99.90;;;;;;5025750;28;20045;-82
2022/02/04 19:28:59;;;;;;;3.35;2.05;;;7.70;99.90;;;;;;5067836;28;20037;-81
2022/02/04 19:31:25;;;;;;;4.57;2.30;;;7.70;99.90;;;;;;5042920;28;20056;-81